Accueil
METAR-TAF:

METAR-TAF

Aéroports :

Recife, Pernambouc, Brésil

Aéroport international de Recife

latitude: 08-08S, longitude: 034-55W, altitude: 19 m

Observation

Le bulletin a été fait il y a 1 heure et 0 minutes, à 01:00 UTC
Vent 7 kt de est
Température 27°C
Humidité 74%
Pression 1015 hPa
Visibilité 10 km ou plus
Nuages épars à une hauteur de 2000 ft

METAR: SBRF 250100Z 10007KT 9999 SCT020 27/22 Q1015

Heure: 23:00 (02:00 UTC)

Prévision

Le bulletin a été fait il y a 4 heures et 0 minutes, à 22:00 UTC
Prévision valable du 25 à 00 UTC au 25 à 24 UTC
Vent 8 kt de est
Visibilité 10 km ou plus
Nuages épars à une hauteur de 2000 ft

TAF: SBRF 242200Z 2500/2524 08008KT 9999 SCT020 TN26/2507Z TX30/2514Z RMK PCH

Observations et prévisions météorologiques de plus de 4000 aéroports (messages METAR et TAF).

Les stations disponibles sont représentées par des disques jaunes et rouges sur la carte.

Passer la souris dessus pour voir le nom de la station.

Cliquer dessus pour voir les observations et prévisions météorologiques.

Pour changer de carte: cliquez sur les boutons verts avec une croix noire pour zoomer, sur le bouton vert avec un tiret pour effectuer un zoom arrière, ou sur les flèches vertes pour les cartes adjacentes.


METAR-TAF: